sensor_id;sensor_type;location;lat;lon;timestamp;P1;durP1;ratioP1;P2;durP2;ratioP2
59366;SDS011;45163;47.690;11.770;2023-05-16T00:00:24;2.30;;;2.10;;
59366;SDS011;45163;47.690;11.770;2023-05-16T00:02:55;2.30;;;2.10;;
59366;SDS011;45163;47.690;11.770;2023-05-16T00:05:21;3.67;;;2.20;;
59366;SDS011;45163;47.690;11.770;2023-05-16T00:07:47;2.40;;;2.20;;
59366;SDS011;45163;47.690;11.770;2023-05-16T00:10:13;2.80;;;2.37;;
59366;SDS011;45163;47.690;11.770;2023-05-16T00:12:40;2.83;;;2.23;;
59366;SDS011;45163;47.690;11.770;2023-05-16T00:15:06;2.50;;;2.10;;
59366;SDS011;45163;47.690;11.770;2023-05-16T00:17:37;2.33;;;2.13;;
59366;SDS011;45163;47.690;11.770;2023-05-16T00:20:03;2.50;;;2.20;;
59366;SDS011;45163;47.690;11.770;2023-05-16T00:22:32;2.40;;;2.20;;
59366;SDS011;45163;47.690;11.770;2023-05-16T00:24:58;3.00;;;2.10;;
59366;SDS011;45163;47.690;11.770;2023-05-16T00:27:24;3.70;;;2.00;;
59366;SDS011;45163;47.690;11.770;2023-05-16T00:29:50;2.27;;;2.07;;
59366;SDS011;45163;47.690;11.770;2023-05-16T00:32:16;2.30;;;2.10;;
59366;SDS011;45163;47.690;11.770;2023-05-16T00:34:43;3.63;;;2.67;;
59366;SDS011;45163;47.690;11.770;2023-05-16T00:37:09;4.87;;;2.40;;
59366;SDS011;45163;47.690;11.770;2023-05-16T00:39:35;2.47;;;2.27;;
59366;SDS011;45163;47.690;11.770;2023-05-16T00:42:01;4.03;;;2.30;;
59366;SDS011;45163;47.690;11.770;2023-05-16T00:44:27;2.73;;;2.23;;
59366;SDS011;45163;47.690;11.770;2023-05-16T00:46:53;2.50;;;2.30;;
59366;SDS011;45163;47.690;11.770;2023-05-16T00:49:19;9.17;;;2.40;;
59366;SDS011;45163;47.690;11.770;2023-05-16T00:51:46;2.30;;;2.10;;
59366;SDS011;45163;47.690;11.770;2023-05-16T00:54:12;3.27;;;2.47;;
59366;SDS011;45163;47.690;11.770;2023-05-16T00:56:39;3.23;;;2.20;;
59366;SDS011;45163;47.690;11.770;2023-05-16T00:59:05;2.30;;;2.10;;
59366;SDS011;45163;47.690;11.770;2023-05-16T01:01:31;5.03;;;2.40;;
59366;SDS011;45163;47.690;11.770;2023-05-16T01:03:59;4.30;;;2.10;;
59366;SDS011;45163;47.690;11.770;2023-05-16T01:06:25;3.73;;;2.40;;
59366;SDS011;45163;47.690;11.770;2023-05-16T01:08:51;8.00;;;2.50;;
59366;SDS011;45163;47.690;11.770;2023-05-16T01:11:21;6.30;;;2.53;;
59366;SDS011;45163;47.690;11.770;2023-05-16T01:17:10;3.30;;;2.40;;
59366;SDS011;45163;47.690;11.770;2023-05-16T01:19:46;2.80;;;2.60;;
59366;SDS011;45163;47.690;11.770;2023-05-16T01:22:37;4.30;;;2.40;;
59366;SDS011;45163;47.690;11.770;2023-05-16T01:28:14;2.60;;;2.40;;
59366;SDS011;45163;47.690;11.770;2023-05-16T01:30:42;2.70;;;2.20;;
59366;SDS011;45163;47.690;11.770;2023-05-16T01:33:08;4.00;;;2.57;;
59366;SDS011;45163;47.690;11.770;2023-05-16T01:35:36;2.40;;;2.00;;
59366;SDS011;45163;47.690;11.770;2023-05-16T01:38:24;4.93;;;2.70;;
59366;SDS011;45163;47.690;11.770;2023-05-16T01:40:52;3.23;;;2.33;;
59366;SDS011;45163;47.690;11.770;2023-05-16T01:43:34;2.57;;;2.30;;
59366;SDS011;45163;47.690;11.770;2023-05-16T01:46:09;2.93;;;2.50;;
59366;SDS011;45163;47.690;11.770;2023-05-16T01:49:01;4.07;;;2.60;;
59366;SDS011;45163;47.690;11.770;2023-05-16T01:51:31;2.73;;;2.50;;
59366;SDS011;45163;47.690;11.770;2023-05-16T01:53:58;4.13;;;2.30;;
59366;SDS011;45163;47.690;11.770;2023-05-16T01:56:30;2.60;;;2.40;;
59366;SDS011;45163;47.690;11.770;2023-05-16T01:58:58;6.47;;;2.80;;
59366;SDS011;45163;47.690;11.770;2023-05-16T02:01:25;3.00;;;2.70;;
59366;SDS011;45163;47.690;11.770;2023-05-16T02:03:51;2.77;;;2.40;;
59366;SDS011;45163;47.690;11.770;2023-05-16T02:06:17;4.43;;;2.63;;
59366;SDS011;45163;47.690;11.770;2023-05-16T02:08:43;4.03;;;2.83;;
59366;SDS011;45163;47.690;11.770;2023-05-16T02:11:09;3.13;;;2.83;;
59366;SDS011;45163;47.690;11.770;2023-05-16T02:13:35;3.40;;;2.80;;
59366;SDS011;45163;47.690;11.770;2023-05-16T02:16:01;2.90;;;2.70;;
59366;SDS011;45163;47.690;11.770;2023-05-16T02:18:28;5.27;;;2.83;;
59366;SDS011;45163;47.690;11.770;2023-05-16T02:20:54;3.40;;;2.73;;
59366;SDS011;45163;47.690;11.770;2023-05-16T02:23:20;4.63;;;3.00;;
59366;SDS011;45163;47.690;11.770;2023-05-16T02:25:46;9.57;;;3.00;;
59366;SDS011;45163;47.690;11.770;2023-05-16T02:28:12;17.07;;;3.60;;
59366;SDS011;45163;47.690;11.770;2023-05-16T02:30:38;4.33;;;3.30;;
59366;SDS011;45163;47.690;11.770;2023-05-16T02:33:04;4.07;;;3.17;;
59366;SDS011;45163;47.690;11.770;2023-05-16T02:35:30;4.43;;;3.20;;
59366;SDS011;45163;47.690;11.770;2023-05-16T02:37:56;5.10;;;3.40;;
59366;SDS011;45163;47.690;11.770;2023-05-16T02:40:29;3.57;;;3.07;;
59366;SDS011;45163;47.690;11.770;2023-05-16T02:42:55;4.03;;;3.63;;
59366;SDS011;45163;47.690;11.770;2023-05-16T02:45:21;4.13;;;3.40;;
59366;SDS011;45163;47.690;11.770;2023-05-16T02:47:47;4.07;;;3.07;;
59366;SDS011;45163;47.690;11.770;2023-05-16T02:50:13;3.73;;;2.87;;
59366;SDS011;45163;47.690;11.770;2023-05-16T02:52:39;4.30;;;2.60;;
59366;SDS011;45163;47.690;11.770;2023-05-16T02:55:05;3.80;;;2.77;;
59366;SDS011;45163;47.690;11.770;2023-05-16T02:57:32;3.43;;;2.70;;
59366;SDS011;45163;47.690;11.770;2023-05-16T02:59:58;3.63;;;2.80;;
59366;SDS011;45163;47.690;11.770;2023-05-16T03:02:24;3.77;;;3.00;;
59366;SDS011;45163;47.690;11.770;2023-05-16T03:04:50;3.00;;;2.70;;
59366;SDS011;45163;47.690;11.770;2023-05-16T03:07:15;4.00;;;3.00;;
59366;SDS011;45163;47.690;11.770;2023-05-16T03:09:42;4.60;;;2.90;;
59366;SDS011;45163;47.690;11.770;2023-05-16T03:12:08;4.10;;;3.00;;
59366;SDS011;45163;47.690;11.770;2023-05-16T03:14:34;4.47;;;3.20;;
59366;SDS011;45163;47.690;11.770;2023-05-16T03:17:00;3.83;;;3.27;;
59366;SDS011;45163;47.690;11.770;2023-05-16T03:19:26;8.30;;;3.20;;
59366;SDS011;45163;47.690;11.770;2023-05-16T03:21:52;3.40;;;3.07;;
59366;SDS011;45163;47.690;11.770;2023-05-16T03:24:18;3.40;;;3.10;;
59366;SDS011;45163;47.690;11.770;2023-05-16T03:26:46;10.67;;;3.57;;
59366;SDS011;45163;47.690;11.770;2023-05-16T03:29:12;4.83;;;3.70;;
59366;SDS011;45163;47.690;11.770;2023-05-16T03:31:37;4.07;;;3.30;;
59366;SDS011;45163;47.690;11.770;2023-05-16T03:34:03;4.63;;;3.40;;
59366;SDS011;45163;47.690;11.770;2023-05-16T03:36:30;4.30;;;3.57;;
59366;SDS011;45163;47.690;11.770;2023-05-16T03:38:56;10.10;;;3.60;;
59366;SDS011;45163;47.690;11.770;2023-05-16T03:41:22;4.13;;;3.43;;
59366;SDS011;45163;47.690;11.770;2023-05-16T03:43:48;8.40;;;3.77;;
59366;SDS011;45163;47.690;11.770;2023-05-16T03:46:14;5.23;;;4.10;;
59366;SDS011;45163;47.690;11.770;2023-05-16T03:48:40;6.77;;;4.00;;
59366;SDS011;45163;47.690;11.770;2023-05-16T03:51:06;8.23;;;3.67;;
59366;SDS011;45163;47.690;11.770;2023-05-16T03:53:31;4.10;;;3.70;;
59366;SDS011;45163;47.690;11.770;2023-05-16T03:55:57;4.30;;;3.87;;
59366;SDS011;45163;47.690;11.770;2023-05-16T03:58:24;4.27;;;3.87;;
59366;SDS011;45163;47.690;11.770;2023-05-16T04:00:50;3.87;;;3.43;;
59366;SDS011;45163;47.690;11.770;2023-05-16T04:03:16;4.90;;;3.13;;
59366;SDS011;45163;47.690;11.770;2023-05-16T04:05:42;3.33;;;3.03;;
59366;SDS011;45163;47.690;11.770;2023-05-16T04:08:07;5.27;;;3.00;;
59366;SDS011;45163;47.690;11.770;2023-05-16T04:10:33;3.27;;;2.97;;
59366;SDS011;45163;47.690;11.770;2023-05-16T04:13:00;5.93;;;3.40;;
59366;SDS011;45163;47.690;11.770;2023-05-16T04:15:26;3.20;;;2.90;;
59366;SDS011;45163;47.690;11.770;2023-05-16T04:17:52;4.30;;;3.37;;
59366;SDS011;45163;47.690;11.770;2023-05-16T04:20:18;3.57;;;3.27;;
59366;SDS011;45163;47.690;11.770;2023-05-16T04:22:45;5.00;;;3.40;;
59366;SDS011;45163;47.690;11.770;2023-05-16T04:25:12;4.77;;;3.80;;
59366;SDS011;45163;47.690;11.770;2023-05-16T04:27:39;3.37;;;2.90;;
59366;SDS011;45163;47.690;11.770;2023-05-16T04:30:05;8.50;;;4.17;;
59366;SDS011;45163;47.690;11.770;2023-05-16T04:32:31;4.10;;;3.50;;
59366;SDS011;45163;47.690;11.770;2023-05-16T04:34:59;3.97;;;3.57;;
59366;SDS011;45163;47.690;11.770;2023-05-16T04:37:25;4.40;;;4.00;;
59366;SDS011;45163;47.690;11.770;2023-05-16T04:39:52;7.07;;;4.10;;
59366;SDS011;45163;47.690;11.770;2023-05-16T04:42:19;4.60;;;4.10;;
59366;SDS011;45163;47.690;11.770;2023-05-16T04:44:45;4.70;;;4.30;;
59366;SDS011;45163;47.690;11.770;2023-05-16T04:47:12;4.80;;;4.30;;
59366;SDS011;45163;47.690;11.770;2023-05-16T04:49:39;4.63;;;4.00;;
59366;SDS011;45163;47.690;11.770;2023-05-16T04:52:05;5.00;;;4.50;;
59366;SDS011;45163;47.690;11.770;2023-05-16T04:54:33;8.40;;;4.67;;
59366;SDS011;45163;47.690;11.770;2023-05-16T04:56:59;5.30;;;4.67;;
59366;SDS011;45163;47.690;11.770;2023-05-16T04:59:25;6.37;;;4.70;;
59366;SDS011;45163;47.690;11.770;2023-05-16T05:01:51;6.67;;;5.33;;
59366;SDS011;45163;47.690;11.770;2023-05-16T05:04:18;5.27;;;4.73;;
59366;SDS011;45163;47.690;11.770;2023-05-16T05:06:45;7.33;;;5.30;;
59366;SDS011;45163;47.690;11.770;2023-05-16T05:09:10;7.20;;;5.13;;
59366;SDS011;45163;47.690;11.770;2023-05-16T05:11:37;10.77;;;5.57;;
59366;SDS011;45163;47.690;11.770;2023-05-16T05:14:03;6.57;;;5.43;;
59366;SDS011;45163;47.690;11.770;2023-05-16T05:16:29;5.53;;;4.73;;
59366;SDS011;45163;47.690;11.770;2023-05-16T05:18:55;5.87;;;5.00;;
59366;SDS011;45163;47.690;11.770;2023-05-16T05:21:21;6.00;;;5.10;;
59366;SDS011;45163;47.690;11.770;2023-05-16T05:23:49;5.17;;;4.50;;
59366;SDS011;45163;47.690;11.770;2023-05-16T05:26:16;6.03;;;4.97;;
59366;SDS011;45163;47.690;11.770;2023-05-16T05:28:42;6.67;;;4.40;;
59366;SDS011;45163;47.690;11.770;2023-05-16T05:31:08;6.97;;;4.87;;
59366;SDS011;45163;47.690;11.770;2023-05-16T05:33:34;5.00;;;4.50;;
59366;SDS011;45163;47.690;11.770;2023-05-16T05:36:00;4.43;;;4.00;;
59366;SDS011;45163;47.690;11.770;2023-05-16T05:38:26;6.97;;;4.67;;
59366;SDS011;45163;47.690;11.770;2023-05-16T05:40:52;9.20;;;4.67;;
59366;SDS011;45163;47.690;11.770;2023-05-16T05:43:18;6.13;;;4.60;;
59366;SDS011;45163;47.690;11.770;2023-05-16T05:45:44;4.63;;;3.83;;
59366;SDS011;45163;47.690;11.770;2023-05-16T05:48:11;4.93;;;4.03;;
59366;SDS011;45163;47.690;11.770;2023-05-16T05:50:37;7.30;;;3.60;;
59366;SDS011;45163;47.690;11.770;2023-05-16T05:53:03;7.40;;;3.90;;
59366;SDS011;45163;47.690;11.770;2023-05-16T05:55:29;4.20;;;3.80;;
59366;SDS011;45163;47.690;11.770;2023-05-16T05:57:55;5.13;;;3.50;;
59366;SDS011;45163;47.690;11.770;2023-05-16T06:00:21;4.20;;;3.80;;
59366;SDS011;45163;47.690;11.770;2023-05-16T06:02:47;6.23;;;3.83;;
59366;SDS011;45163;47.690;11.770;2023-05-16T06:05:13;5.40;;;3.70;;
59366;SDS011;45163;47.690;11.770;2023-05-16T06:07:39;5.90;;;3.50;;
59366;SDS011;45163;47.690;11.770;2023-05-16T06:10:05;8.10;;;3.47;;
59366;SDS011;45163;47.690;11.770;2023-05-16T06:12:33;3.43;;;3.13;;
59366;SDS011;45163;47.690;11.770;2023-05-16T06:14:59;3.80;;;3.40;;
59366;SDS011;45163;47.690;11.770;2023-05-16T06:17:25;4.30;;;3.70;;
59366;SDS011;45163;47.690;11.770;2023-05-16T06:19:51;5.00;;;3.30;;
59366;SDS011;45163;47.690;11.770;2023-05-16T06:22:17;5.03;;;3.20;;
59366;SDS011;45163;47.690;11.770;2023-05-16T06:24:43;5.50;;;3.63;;
59366;SDS011;45163;47.690;11.770;2023-05-16T06:27:09;3.10;;;2.60;;
59366;SDS011;45163;47.690;11.770;2023-05-16T06:29:35;5.43;;;3.13;;
59366;SDS011;45163;47.690;11.770;2023-05-16T06:32:04;6.27;;;3.30;;
59366;SDS011;45163;47.690;11.770;2023-05-16T06:34:30;9.20;;;3.50;;
59366;SDS011;45163;47.690;11.770;2023-05-16T06:36:56;6.90;;;4.47;;
59366;SDS011;45163;47.690;11.770;2023-05-16T06:39:28;4.40;;;3.40;;
59366;SDS011;45163;47.690;11.770;2023-05-16T06:41:54;6.70;;;3.93;;
59366;SDS011;45163;47.690;11.770;2023-05-16T06:44:21;5.47;;;4.07;;
59366;SDS011;45163;47.690;11.770;2023-05-16T06:46:47;6.50;;;4.90;;
59366;SDS011;45163;47.690;11.770;2023-05-16T06:49:13;12.13;;;4.50;;
59366;SDS011;45163;47.690;11.770;2023-05-16T06:51:40;4.40;;;4.00;;
59366;SDS011;45163;47.690;11.770;2023-05-16T06:54:06;4.60;;;4.00;;
59366;SDS011;45163;47.690;11.770;2023-05-16T06:56:32;5.53;;;4.00;;
59366;SDS011;45163;47.690;11.770;2023-05-16T06:58:58;6.37;;;4.10;;
59366;SDS011;45163;47.690;11.770;2023-05-16T07:01:26;6.17;;;4.07;;
59366;SDS011;45163;47.690;11.770;2023-05-16T07:03:52;11.60;;;4.60;;
59366;SDS011;45163;47.690;11.770;2023-05-16T07:06:18;5.20;;;4.47;;
59366;SDS011;45163;47.690;11.770;2023-05-16T07:08:44;8.20;;;4.40;;
59366;SDS011;45163;47.690;11.770;2023-05-16T07:11:10;4.47;;;4.07;;
59366;SDS011;45163;47.690;11.770;2023-05-16T07:13:36;4.97;;;4.27;;
59366;SDS011;45163;47.690;11.770;2023-05-16T07:16:02;4.30;;;3.90;;
59366;SDS011;45163;47.690;11.770;2023-05-16T07:18:28;6.87;;;3.80;;
59366;SDS011;45163;47.690;11.770;2023-05-16T07:20:55;4.70;;;4.20;;
59366;SDS011;45163;47.690;11.770;2023-05-16T07:23:21;5.07;;;4.17;;
59366;SDS011;45163;47.690;11.770;2023-05-16T07:25:47;4.83;;;4.00;;
59366;SDS011;45163;47.690;11.770;2023-05-16T07:28:13;9.27;;;4.60;;
59366;SDS011;45163;47.690;11.770;2023-05-16T07:30:39;6.43;;;5.00;;
59366;SDS011;45163;47.690;11.770;2023-05-16T07:33:05;6.70;;;6.00;;
59366;SDS011;45163;47.690;11.770;2023-05-16T07:35:31;7.60;;;5.53;;
59366;SDS011;45163;47.690;11.770;2023-05-16T07:37:57;4.70;;;4.20;;
59366;SDS011;45163;47.690;11.770;2023-05-16T07:40:23;5.73;;;3.93;;
59366;SDS011;45163;47.690;11.770;2023-05-16T07:42:52;3.60;;;3.30;;
59366;SDS011;45163;47.690;11.770;2023-05-16T07:45:18;4.83;;;3.53;;
59366;SDS011;45163;47.690;11.770;2023-05-16T07:47:45;3.93;;;3.50;;
59366;SDS011;45163;47.690;11.770;2023-05-16T07:50:11;5.63;;;3.40;;
59366;SDS011;45163;47.690;11.770;2023-05-16T07:52:37;3.53;;;3.23;;
59366;SDS011;45163;47.690;11.770;2023-05-16T07:55:06;4.90;;;3.27;;
59366;SDS011;45163;47.690;11.770;2023-05-16T07:57:35;9.00;;;3.53;;
59366;SDS011;45163;47.690;11.770;2023-05-16T08:00:02;6.63;;;4.60;;
59366;SDS011;45163;47.690;11.770;2023-05-16T08:02:28;6.50;;;5.53;;
59366;SDS011;45163;47.690;11.770;2023-05-16T08:04:58;7.23;;;5.93;;
59366;SDS011;45163;47.690;11.770;2023-05-16T08:07:24;9.87;;;6.97;;
59366;SDS011;45163;47.690;11.770;2023-05-16T08:09:50;9.47;;;7.47;;
59366;SDS011;45163;47.690;11.770;2023-05-16T08:12:16;9.13;;;8.13;;
59366;SDS011;45163;47.690;11.770;2023-05-16T08:14:42;10.53;;;8.40;;
59366;SDS011;45163;47.690;11.770;2023-05-16T08:17:14;10.33;;;8.57;;
59366;SDS011;45163;47.690;11.770;2023-05-16T08:19:46;11.43;;;9.03;;
59366;SDS011;45163;47.690;11.770;2023-05-16T08:22:15;13.13;;;8.73;;
59366;SDS011;45163;47.690;11.770;2023-05-16T08:24:41;13.50;;;9.07;;
59366;SDS011;45163;47.690;11.770;2023-05-16T08:27:10;17.73;;;8.13;;
59366;SDS011;45163;47.690;11.770;2023-05-16T08:29:36;11.20;;;8.20;;
59366;SDS011;45163;47.690;11.770;2023-05-16T08:32:02;11.93;;;8.60;;
59366;SDS011;45163;47.690;11.770;2023-05-16T08:34:33;10.17;;;7.97;;
59366;SDS011;45163;47.690;11.770;2023-05-16T08:36:59;10.97;;;8.10;;
59366;SDS011;45163;47.690;11.770;2023-05-16T08:39:25;10.70;;;8.13;;
59366;SDS011;45163;47.690;11.770;2023-05-16T08:41:51;14.73;;;8.67;;
59366;SDS011;45163;47.690;11.770;2023-05-16T08:44:20;12.63;;;7.80;;
59366;SDS011;45163;47.690;11.770;2023-05-16T08:46:49;10.97;;;8.33;;
59366;SDS011;45163;47.690;11.770;2023-05-16T08:49:19;9.37;;;8.20;;
59366;SDS011;45163;47.690;11.770;2023-05-16T08:51:46;10.90;;;8.70;;
59366;SDS011;45163;47.690;11.770;2023-05-16T08:54:14;14.80;;;8.90;;
59366;SDS011;45163;47.690;11.770;2023-05-16T08:56:41;13.13;;;8.80;;
59366;SDS011;45163;47.690;11.770;2023-05-16T08:59:09;12.57;;;9.23;;
59366;SDS011;45163;47.690;11.770;2023-05-16T09:01:39;12.53;;;9.43;;
59366;SDS011;45163;47.690;11.770;2023-05-16T09:04:06;13.03;;;9.37;;
59366;SDS011;45163;47.690;11.770;2023-05-16T09:06:37;9.80;;;8.80;;
59366;SDS011;45163;47.690;11.770;2023-05-16T09:09:03;10.67;;;8.97;;
59366;SDS011;45163;47.690;11.770;2023-05-16T09:11:32;10.57;;;9.43;;
59366;SDS011;45163;47.690;11.770;2023-05-16T09:13:59;15.00;;;9.00;;
59366;SDS011;45163;47.690;11.770;2023-05-16T09:16:25;12.57;;;8.77;;
59366;SDS011;45163;47.690;11.770;2023-05-16T09:18:53;18.17;;;10.17;;
59366;SDS011;45163;47.690;11.770;2023-05-16T09:21:22;19.90;;;9.57;;
59366;SDS011;45163;47.690;11.770;2023-05-16T09:24:04;18.33;;;9.57;;
59366;SDS011;45163;47.690;11.770;2023-05-16T09:26:34;10.53;;;9.43;;
59366;SDS011;45163;47.690;11.770;2023-05-16T09:29:08;13.03;;;9.23;;
59366;SDS011;45163;47.690;11.770;2023-05-16T09:31:38;14.93;;;10.37;;
59366;SDS011;45163;47.690;11.770;2023-05-16T09:34:07;13.77;;;9.47;;
59366;SDS011;45163;47.690;11.770;2023-05-16T09:36:36;14.00;;;9.40;;
59366;SDS011;45163;47.690;11.770;2023-05-16T09:39:02;11.77;;;9.97;;
59366;SDS011;45163;47.690;11.770;2023-05-16T09:41:32;10.10;;;8.97;;
59366;SDS011;45163;47.690;11.770;2023-05-16T09:44:02;11.47;;;9.73;;
59366;SDS011;45163;47.690;11.770;2023-05-16T09:46:28;11.17;;;9.03;;
59366;SDS011;45163;47.690;11.770;2023-05-16T09:48:55;10.67;;;9.00;;
59366;SDS011;45163;47.690;11.770;2023-05-16T09:51:22;12.87;;;10.23;;
59366;SDS011;45163;47.690;11.770;2023-05-16T09:53:48;12.50;;;9.87;;
59366;SDS011;45163;47.690;11.770;2023-05-16T09:56:14;11.63;;;9.90;;
59366;SDS011;45163;47.690;11.770;2023-05-16T09:58:42;12.90;;;10.37;;
59366;SDS011;45163;47.690;11.770;2023-05-16T10:01:09;13.27;;;10.30;;
59366;SDS011;45163;47.690;11.770;2023-05-16T10:03:36;12.20;;;10.60;;
59366;SDS011;45163;47.690;11.770;2023-05-16T10:06:04;14.23;;;10.47;;
59366;SDS011;45163;47.690;11.770;2023-05-16T10:08:32;13.03;;;10.50;;
59366;SDS011;45163;47.690;11.770;2023-05-16T10:11:01;15.90;;;11.40;;
59366;SDS011;45163;47.690;11.770;2023-05-16T10:13:29;12.20;;;10.07;;
59366;SDS011;45163;47.690;11.770;2023-05-16T10:16:01;13.63;;;10.67;;
59366;SDS011;45163;47.690;11.770;2023-05-16T10:18:32;11.77;;;10.47;;
59366;SDS011;45163;47.690;11.770;2023-05-16T10:21:03;11.77;;;10.47;;
59366;SDS011;45163;47.690;11.770;2023-05-16T10:23:33;12.57;;;10.50;;
59366;SDS011;45163;47.690;11.770;2023-05-16T10:26:06;12.27;;;10.27;;
59366;SDS011;45163;47.690;11.770;2023-05-16T10:28:34;14.93;;;11.00;;
59366;SDS011;45163;47.690;11.770;2023-05-16T10:31:01;13.00;;;11.03;;
59366;SDS011;45163;47.690;11.770;2023-05-16T10:33:27;11.10;;;9.87;;
59366;SDS011;45163;47.690;11.770;2023-05-16T10:35:54;12.77;;;10.50;;
59366;SDS011;45163;47.690;11.770;2023-05-16T10:38:21;14.70;;;10.80;;
59366;SDS011;45163;47.690;11.770;2023-05-16T10:40:49;14.13;;;11.10;;
59366;SDS011;45163;47.690;11.770;2023-05-16T10:43:23;14.03;;;11.37;;
59366;SDS011;45163;47.690;11.770;2023-05-16T10:45:55;12.90;;;10.47;;
59366;SDS011;45163;47.690;11.770;2023-05-16T10:48:32;11.43;;;10.23;;
59366;SDS011;45163;47.690;11.770;2023-05-16T10:51:01;15.53;;;12.07;;
59366;SDS011;45163;47.690;11.770;2023-05-16T10:53:32;12.93;;;11.20;;
59366;SDS011;45163;47.690;11.770;2023-05-16T11:06:33;12.80;;;10.23;;
59366;SDS011;45163;47.690;11.770;2023-05-16T11:14:35;13.17;;;11.43;;
59366;SDS011;45163;47.690;11.770;2023-05-16T11:19:41;13.63;;;11.13;;
59366;SDS011;45163;47.690;11.770;2023-05-16T11:25:08;12.43;;;11.13;;
59366;SDS011;45163;47.690;11.770;2023-05-16T11:27:42;13.17;;;11.77;;
59366;SDS011;45163;47.690;11.770;2023-05-16T11:30:10;12.37;;;10.87;;
59366;SDS011;45163;47.690;11.770;2023-05-16T11:32:39;13.53;;;10.87;;
59366;SDS011;45163;47.690;11.770;2023-05-16T11:35:10;11.50;;;10.30;;
59366;SDS011;45163;47.690;11.770;2023-05-16T11:37:39;11.70;;;10.50;;
59366;SDS011;45163;47.690;11.770;2023-05-16T11:40:06;14.27;;;10.53;;
59366;SDS011;45163;47.690;11.770;2023-05-16T11:42:35;12.00;;;10.77;;
59366;SDS011;45163;47.690;11.770;2023-05-16T11:45:06;11.10;;;10.00;;
59366;SDS011;45163;47.690;11.770;2023-05-16T11:47:37;13.27;;;11.07;;
59366;SDS011;45163;47.690;11.770;2023-05-16T11:50:05;13.03;;;11.33;;
59366;SDS011;45163;47.690;11.770;2023-05-16T11:52:48;12.87;;;11.50;;
59366;SDS011;45163;47.690;11.770;2023-05-16T11:55:19;14.07;;;11.73;;
59366;SDS011;45163;47.690;11.770;2023-05-16T11:57:48;16.60;;;12.63;;
59366;SDS011;45163;47.690;11.770;2023-05-16T12:00:17;13.43;;;12.03;;
59366;SDS011;45163;47.690;11.770;2023-05-16T12:02:45;13.07;;;11.67;;
59366;SDS011;45163;47.690;11.770;2023-05-16T12:05:14;13.40;;;12.10;;
59366;SDS011;45163;47.690;11.770;2023-05-16T12:07:42;13.17;;;11.73;;
59366;SDS011;45163;47.690;11.770;2023-05-16T12:10:10;12.83;;;11.53;;
59366;SDS011;45163;47.690;11.770;2023-05-16T12:12:38;14.00;;;12.50;;
59366;SDS011;45163;47.690;11.770;2023-05-16T12:15:09;12.83;;;11.50;;
59366;SDS011;45163;47.690;11.770;2023-05-16T12:17:36;15.63;;;12.63;;
59366;SDS011;45163;47.690;11.770;2023-05-16T12:20:04;11.50;;;10.10;;
59366;SDS011;45163;47.690;11.770;2023-05-16T12:22:31;9.30;;;7.10;;
59366;SDS011;45163;47.690;11.770;2023-05-16T12:24:58;9.43;;;6.90;;
59366;SDS011;45163;47.690;11.770;2023-05-16T12:27:24;11.23;;;8.90;;
59366;SDS011;45163;47.690;11.770;2023-05-16T12:29:52;7.60;;;6.90;;
59366;SDS011;45163;47.690;11.770;2023-05-16T12:32:18;7.03;;;6.33;;
59366;SDS011;45163;47.690;11.770;2023-05-16T12:34:49;9.93;;;7.93;;
59366;SDS011;45163;47.690;11.770;2023-05-16T12:37:16;7.67;;;6.70;;
59366;SDS011;45163;47.690;11.770;2023-05-16T12:39:42;6.40;;;5.80;;
59366;SDS011;45163;47.690;11.770;2023-05-16T12:42:13;9.80;;;6.43;;
59366;SDS011;45163;47.690;11.770;2023-05-16T12:44:39;8.33;;;6.63;;
59366;SDS011;45163;47.690;11.770;2023-05-16T12:47:11;8.20;;;6.27;;
59366;SDS011;45163;47.690;11.770;2023-05-16T12:49:47;6.13;;;5.53;;
59366;SDS011;45163;47.690;11.770;2023-05-16T12:52:19;6.33;;;5.73;;
59366;SDS011;45163;47.690;11.770;2023-05-16T12:54:46;7.10;;;6.40;;
59366;SDS011;45163;47.690;11.770;2023-05-16T12:57:13;7.03;;;6.13;;
59366;SDS011;45163;47.690;11.770;2023-05-16T12:59:39;8.07;;;7.10;;
59366;SDS011;45163;47.690;11.770;2023-05-16T13:02:05;8.10;;;7.30;;
59366;SDS011;45163;47.690;11.770;2023-05-16T13:04:32;10.37;;;7.30;;
59366;SDS011;45163;47.690;11.770;2023-05-16T13:06:58;9.90;;;7.20;;
59366;SDS011;45163;47.690;11.770;2023-05-16T13:09:24;7.87;;;7.07;;
59366;SDS011;45163;47.690;11.770;2023-05-16T13:11:51;9.53;;;7.87;;
59366;SDS011;45163;47.690;11.770;2023-05-16T13:14:17;8.27;;;7.40;;
59366;SDS011;45163;47.690;11.770;2023-05-16T13:16:43;8.43;;;7.40;;
59366;SDS011;45163;47.690;11.770;2023-05-16T13:19:09;13.27;;;7.53;;
59366;SDS011;45163;47.690;11.770;2023-05-16T13:21:36;9.10;;;7.90;;
59366;SDS011;45163;47.690;11.770;2023-05-16T13:24:02;9.43;;;8.50;;
59366;SDS011;45163;47.690;11.770;2023-05-16T13:26:28;13.00;;;9.60;;
59366;SDS011;45163;47.690;11.770;2023-05-16T13:28:54;11.23;;;10.03;;
59366;SDS011;45163;47.690;11.770;2023-05-16T13:31:20;11.23;;;10.03;;
59366;SDS011;45163;47.690;11.770;2023-05-16T13:33:47;11.37;;;10.17;;
59366;SDS011;45163;47.690;11.770;2023-05-16T13:36:13;15.87;;;11.43;;
59366;SDS011;45163;47.690;11.770;2023-05-16T13:38:39;18.67;;;12.17;;
59366;SDS011;45163;47.690;11.770;2023-05-16T13:41:06;13.97;;;11.23;;
59366;SDS011;45163;47.690;11.770;2023-05-16T13:43:32;11.00;;;9.90;;
59366;SDS011;45163;47.690;11.770;2023-05-16T13:45:58;10.97;;;8.73;;
59366;SDS011;45163;47.690;11.770;2023-05-16T13:48:27;10.57;;;8.40;;
59366;SDS011;45163;47.690;11.770;2023-05-16T13:50:58;9.57;;;8.57;;
59366;SDS011;45163;47.690;11.770;2023-05-16T13:53:24;9.43;;;8.00;;
59366;SDS011;45163;47.690;11.770;2023-05-16T13:55:50;8.80;;;8.00;;
59366;SDS011;45163;47.690;11.770;2023-05-16T13:58:19;13.47;;;8.30;;
59366;SDS011;45163;47.690;11.770;2023-05-16T14:00:45;8.57;;;7.43;;
59366;SDS011;45163;47.690;11.770;2023-05-16T14:03:12;8.67;;;7.30;;
59366;SDS011;45163;47.690;11.770;2023-05-16T14:05:41;8.33;;;7.13;;
59366;SDS011;45163;47.690;11.770;2023-05-16T14:08:07;9.10;;;7.73;;
59366;SDS011;45163;47.690;11.770;2023-05-16T14:10:33;8.37;;;7.10;;
59366;SDS011;45163;47.690;11.770;2023-05-16T14:12:59;8.80;;;6.60;;
59366;SDS011;45163;47.690;11.770;2023-05-16T14:15:28;7.50;;;6.57;;
59366;SDS011;45163;47.690;11.770;2023-05-16T14:17:54;7.23;;;6.53;;
59366;SDS011;45163;47.690;11.770;2023-05-16T14:20:33;7.77;;;6.63;;
59366;SDS011;45163;47.690;11.770;2023-05-16T14:22:59;6.60;;;6.00;;
59366;SDS011;45163;47.690;11.770;2023-05-16T14:25:25;6.60;;;6.00;;
59366;SDS011;45163;47.690;11.770;2023-05-16T14:27:51;7.37;;;5.70;;
59366;SDS011;45163;47.690;11.770;2023-05-16T14:30:19;5.83;;;5.23;;
59366;SDS011;45163;47.690;11.770;2023-05-16T14:32:46;6.73;;;5.50;;
59366;SDS011;45163;47.690;11.770;2023-05-16T14:35:12;6.20;;;5.60;;
59366;SDS011;45163;47.690;11.770;2023-05-16T14:37:38;6.13;;;5.53;;
59366;SDS011;45163;47.690;11.770;2023-05-16T14:40:04;7.33;;;6.20;;
59366;SDS011;45163;47.690;11.770;2023-05-16T14:42:31;6.67;;;6.07;;
59366;SDS011;45163;47.690;11.770;2023-05-16T14:44:57;7.37;;;6.20;;
59366;SDS011;45163;47.690;11.770;2023-05-16T14:47:23;6.43;;;5.83;;
59366;SDS011;45163;47.690;11.770;2023-05-16T14:49:49;6.70;;;6.07;;
59366;SDS011;45163;47.690;11.770;2023-05-16T14:52:17;7.20;;;6.50;;
59366;SDS011;45163;47.690;11.770;2023-05-16T14:54:43;7.97;;;6.77;;
59366;SDS011;45163;47.690;11.770;2023-05-16T14:57:09;8.67;;;6.37;;